Chelmsford, Canada
Current Conditions -  °F | °C
As of 6:00 PM on Monday 20 Oct 2014 (Local Time) from CYSB Reporting Station
Light Rain Light Rain  
Wind Chill: 34°   Ceiling: 600
Heat Index: 41°   Visibility: 10mi
Dew Point: 41°   Wind: 13mph
Humidity: 100%   Direction: 30°NNE
Pressure: 29.78"   Gusts: NA
Location:  46.58°N, 81.2°W
Report Text: CYSB 202200Z 03011KT 10SM -RA OVC006 05/05 A2978 RMK SF8 CIG VRB 4-8 SLP098
Loading
Personal Weather Stations






























Interactive Weather Map
Tropical Storm Tracking
New forecast layout! Learn more

10-Day Weather Forecast

Advertisements
Track Severe Weather on mobile